Terminal Aerodrome Forecast
Issued by NWS Shreveport, LA

Home | Current Version | Previous Version | Text Only | Print | Product List | Glossary On
Versions: 1 2 3 4 5 6 7 8 9 10 11 12 13 14 15
000
FTUS44 KSHV 301141
TAFTXK
TAF
KTXK 301141Z 3012/0112 22008KT P6SM SCT015 BKN150 BKN250
      TEMPO 3013/3016 BKN015
     FM301600 25010KT P6SM SCT025 SCT150 BKN250
     FM301800 24010KT P6SM VCTS SCT045CB SCT150 BKN250
     FM010000 21007KT P6SM FEW060 SCT150 SCT250
     FM010600 21008KT P6SM SCT250=

USA.gov is the U.S. government's official web portal to all federal, state and local government web resources and services.